createdAt,value
2019-05-18T00:02:13.906Z,99331.11
2019-05-18T00:04:44.754Z,99333.76
2019-05-18T00:07:15.395Z,99339.56
2019-05-18T00:09:46.461Z,99336.73
2019-05-18T00:12:17.085Z,99348.05
2019-05-18T00:14:48.406Z,99342.64
2019-05-18T00:17:25.393Z,99333.56
2019-05-18T00:19:53.066Z,99337.33
2019-05-18T00:22:23.673Z,99338.59
2019-05-18T00:24:54.956Z,99340.58
2019-05-18T00:27:26.085Z,99339.94
2019-05-18T00:29:57.111Z,99342.09
2019-05-18T00:32:29.201Z,99337.91
2019-05-18T00:35:00.266Z,99338.13
2019-05-18T00:37:30.852Z,99334.92
2019-05-18T00:40:01.927Z,99342.12
2019-05-18T00:42:32.524Z,99339.86
2019-05-18T00:45:04.131Z,99334.68
2019-05-18T00:47:41.477Z,99331.61
2019-05-18T00:50:08.281Z,99331.61
2019-05-18T00:52:38.936Z,99328.70
2019-05-18T00:55:10.073Z,99317.82
2019-05-18T00:57:40.821Z,99317.82
2019-05-18T01:00:13.327Z,99320.00
2019-05-18T01:02:44.030Z,99319.57
2019-05-18T01:05:14.742Z,99313.45
2019-05-18T01:07:45.478Z,99312.01
2019-05-18T01:10:16.848Z,99308.13
2019-05-18T01:12:47.454Z,99309.63
2019-05-18T01:15:18.661Z,99310.77
2019-05-18T01:17:57.234Z,99298.08
2019-05-18T01:20:21.893Z,99299.37
2019-05-18T01:22:52.513Z,99297.19
2019-05-18T01:25:23.171Z,99295.72
2019-05-18T01:27:53.898Z,99295.05
2019-05-18T01:30:26.138Z,99300.96
2019-05-18T01:32:56.781Z,99288.76
2019-05-18T01:35:27.668Z,99299.40
2019-05-18T01:37:59.109Z,99300.67
2019-05-18T01:40:30.708Z,99306.43
2019-05-18T01:43:01.322Z,99297.95
2019-05-18T01:45:32.356Z,99304.45
2019-05-18T01:48:13.129Z,99293.75
2019-05-18T01:50:36.389Z,99301.41
2019-05-18T01:53:07.790Z,99301.30
2019-05-18T01:55:38.646Z,99299.52
2019-05-18T01:58:09.666Z,99303.78
2019-05-18T02:00:40.428Z,99300.57
2019-05-18T02:03:11.183Z,99296.97
2019-05-18T02:05:41.867Z,99299.22
2019-05-18T02:08:15.640Z,99305.97
2019-05-18T02:10:46.447Z,99311.80
2019-05-18T02:13:17.109Z,99298.55
2019-05-18T02:15:47.798Z,99307.70
2019-05-18T02:18:28.850Z,99307.98
2019-05-18T02:20:50.812Z,99311.80
2019-05-18T02:23:21.543Z,99305.29
2019-05-18T02:25:52.363Z,99308.21
2019-05-18T02:28:23.246Z,99302.81
2019-05-18T02:30:54.600Z,99303.11
2019-05-18T02:33:25.183Z,99302.82
2019-05-18T02:35:56.518Z,99300.06
2019-05-18T02:38:28.018Z,99304.91
2019-05-18T02:40:59.792Z,99305.58
2019-05-18T02:43:31.061Z,99302.98
2019-05-18T02:46:02.393Z,99312.09
2019-05-18T02:48:48.592Z,99312.41
2019-05-18T02:51:11.136Z,99318.09
2019-05-18T02:53:39.830Z,99316.55
2019-05-18T02:56:11.589Z,99315.06
2019-05-18T02:58:42.209Z,99311.59
2019-05-18T03:01:12.973Z,99313.55
2019-05-18T03:03:45.565Z,99307.41
2019-05-18T03:06:16.289Z,99312.28
2019-05-18T03:08:47.393Z,99309.52
2019-05-18T03:11:21.233Z,99311.91
2019-05-18T03:13:52.358Z,99308.27
2019-05-18T03:16:23.107Z,99312.47
2019-05-18T03:19:07.321Z,99311.55
2019-05-18T03:21:26.346Z,99312.28
2019-05-18T03:23:57.214Z,99309.38
2019-05-18T03:26:28.282Z,99311.50
2019-05-18T03:28:59.181Z,99311.62
2019-05-18T03:31:31.158Z,99313.49
2019-05-18T03:34:01.937Z,99302.72
2019-05-18T03:36:32.808Z,99297.30
2019-05-18T03:39:04.989Z,99296.00
2019-05-18T03:41:35.715Z,99292.59
2019-05-18T03:44:07.395Z,99292.08
2019-05-18T03:46:38.995Z,99290.19
2019-05-18T03:49:25.424Z,99293.30
2019-05-18T03:51:43.726Z,99292.34
2019-05-18T03:54:15.982Z,99290.48
2019-05-18T03:56:46.571Z,99289.44
2019-05-18T03:59:17.361Z,99285.17
2019-05-18T04:01:48.240Z,99283.54
2019-05-18T04:04:18.936Z,99290.98
2019-05-18T04:06:49.608Z,99289.83
2019-05-18T04:09:20.394Z,99292.22
2019-05-18T04:11:50.964Z,99299.70
2019-05-18T04:14:22.344Z,99291.96
2019-05-18T04:16:55.978Z,99294.97
2019-05-18T04:19:44.687Z,99299.25
2019-05-18T04:21:59.718Z,99303.05
2019-05-18T04:24:30.584Z,99301.00
2019-05-18T04:27:01.438Z,99304.22
2019-05-18T04:29:32.540Z,99297.64
2019-05-18T04:32:03.253Z,99298.70
2019-05-18T04:34:33.907Z,99296.33
2019-05-18T04:37:04.524Z,99296.02
2019-05-18T04:39:35.178Z,99294.18
2019-05-18T04:42:06.230Z,99288.95
2019-05-18T04:44:37.045Z,99306.34
2019-05-18T04:47:07.730Z,99295.29
2019-05-18T04:49:38.363Z,99289.47
2019-05-18T04:52:08.982Z,99290.30
2019-05-18T04:54:39.840Z,99287.99
2019-05-18T04:57:10.595Z,99290.86
2019-05-18T04:59:41.335Z,99286.27
2019-05-18T05:02:12.185Z,99294.21
2019-05-18T05:04:42.992Z,99292.16
2019-05-18T05:07:13.624Z,99293.81
2019-05-18T05:09:44.378Z,99289.30
2019-05-18T05:12:15.130Z,99299.75
2019-05-18T05:14:45.745Z,99285.49
2019-05-18T05:17:16.359Z,99293.32
2019-05-18T05:19:48.380Z,99293.32
2019-05-18T05:22:19.087Z,99288.34
2019-05-18T05:24:49.718Z,99291.76
2019-05-18T05:27:20.336Z,99289.77
2019-05-18T05:29:51.083Z,99234.36
2019-05-18T05:32:21.718Z,99275.31
2019-05-18T05:34:52.385Z,99277.80
2019-05-18T05:37:23.032Z,99275.59
2019-05-18T05:39:53.650Z,99271.83
2019-05-18T05:42:24.313Z,99275.64
2019-05-18T05:44:55.326Z,99274.26
2019-05-18T05:47:25.853Z,99281.06
2019-05-18T05:49:56.469Z,99271.81
2019-05-18T05:52:27.142Z,99271.01
2019-05-18T05:54:57.889Z,99271.58
2019-05-18T05:57:28.494Z,99268.22
2019-05-18T05:59:59.087Z,99276.14
2019-05-18T06:02:29.883Z,99276.46
2019-05-18T06:05:00.814Z,99265.47
2019-05-18T06:07:31.464Z,99266.63
2019-05-18T06:10:02.464Z,99258.80
2019-05-18T06:12:33.323Z,99261.04
2019-05-18T06:15:05.528Z,99247.42
2019-05-18T06:17:36.308Z,99257.34
2019-05-18T06:20:09.370Z,99248.86
2019-05-18T06:22:40.688Z,99250.28
2019-05-18T06:25:11.656Z,99247.53
2019-05-18T06:27:42.421Z,99240.18
2019-05-18T06:30:14.097Z,99251.36
2019-05-18T06:32:44.907Z,99250.23
2019-05-18T06:35:15.790Z,99248.60
2019-05-18T06:37:46.655Z,99256.81
2019-05-18T06:40:17.211Z,99248.64
2019-05-18T06:42:47.889Z,99263.50
2019-05-18T06:45:18.798Z,99260.07
2019-05-18T06:47:49.598Z,99275.20
2019-05-18T06:50:23.354Z,99259.02
2019-05-18T06:52:54.127Z,99260.98
2019-05-18T06:55:26.779Z,99261.20
2019-05-18T06:57:59.281Z,99261.20
2019-05-18T07:00:30.979Z,99261.50
2019-05-18T07:03:01.715Z,99256.05
2019-05-18T07:05:32.353Z,99256.05
2019-05-18T07:08:05.062Z,99262.89
2019-05-18T07:10:35.871Z,99261.60
2019-05-18T07:13:08.145Z,99261.60
2019-05-18T07:15:39.215Z,99266.20
2019-05-18T07:18:10.013Z,99267.80
2019-05-18T07:20:40.751Z,99263.52
2019-05-18T07:23:11.470Z,99270.13
2019-05-18T07:25:42.033Z,99260.61
2019-05-18T07:28:12.734Z,99275.57
2019-05-18T07:30:43.326Z,99269.37
2019-05-18T07:33:14.096Z,99267.70
2019-05-18T07:35:44.986Z,99266.63
2019-05-18T07:38:15.654Z,99267.19
2019-05-18T07:40:46.742Z,99255.16
2019-05-18T07:43:17.252Z,99258.73
2019-05-18T07:45:50.102Z,99258.45
2019-05-18T07:48:20.865Z,99260.89
2019-05-18T07:50:51.598Z,99251.62
2019-05-18T07:53:22.244Z,99264.16
2019-05-18T07:55:52.962Z,99264.72
2019-05-18T07:58:23.609Z,99258.14
2019-05-18T08:00:54.309Z,99263.06
2019-05-18T08:03:25.154Z,99258.69
2019-05-18T08:05:55.750Z,99257.27
2019-05-18T08:08:26.455Z,99251.05
2019-05-18T08:10:57.540Z,99252.31
2019-05-18T08:13:28.665Z,99246.63
2019-05-18T08:15:59.474Z,99245.80
2019-05-18T08:18:30.511Z,99243.86
2019-05-18T08:21:10.959Z,99249.08
2019-05-18T08:23:41.687Z,99260.81
2019-05-18T08:26:12.406Z,99262.42
2019-05-18T08:28:43.017Z,99257.77
2019-05-18T08:31:13.606Z,99254.55
2019-05-18T08:33:44.366Z,99257.27
2019-05-18T08:36:14.993Z,99266.25
2019-05-18T08:38:45.587Z,99268.93
2019-05-18T08:41:16.236Z,99274.70
2019-05-18T08:43:46.832Z,99253.55
2019-05-18T08:46:17.546Z,99257.09
2019-05-18T08:48:48.289Z,99257.11
2019-05-18T08:51:18.957Z,99239.08
2019-05-18T08:53:49.629Z,99241.86
2019-05-18T08:56:20.221Z,99248.16
2019-05-18T08:58:50.899Z,99244.06
2019-05-18T09:01:21.633Z,99231.68
2019-05-18T09:03:55.296Z,99254.09
2019-05-18T09:06:26.088Z,99239.52
2019-05-18T09:08:56.844Z,99232.67
2019-05-18T09:11:27.548Z,99232.02
2019-05-18T09:13:58.123Z,99225.72
2019-05-18T09:16:28.955Z,99223.94
2019-05-18T09:18:59.872Z,99221.38
2019-05-18T09:21:30.565Z,99210.49
2019-05-18T09:24:01.360Z,99209.92
2019-05-18T09:26:32.154Z,99218.19
2019-05-18T09:29:02.937Z,99208.20
2019-05-18T09:31:33.526Z,99216.31
2019-05-18T09:34:07.244Z,99221.24
2019-05-18T09:36:38.064Z,99218.79
2019-05-18T09:39:08.697Z,99204.65
2019-05-18T09:41:39.319Z,99205.28
2019-05-18T09:44:10.009Z,99213.56
2019-05-18T09:46:40.620Z,99194.48
2019-05-18T09:49:11.221Z,99202.08
2019-05-18T09:51:41.677Z,99206.96
2019-05-18T09:54:12.285Z,99187.84
2019-05-18T09:56:42.999Z,99191.72
2019-05-18T09:59:13.638Z,99199.55
2019-05-18T10:01:44.727Z,99193.54
2019-05-18T10:04:15.504Z,99205.02
2019-05-18T10:06:46.453Z,99195.73
2019-05-18T10:09:17.195Z,99192.52
2019-05-18T10:11:47.836Z,99196.02
2019-05-18T10:14:18.540Z,99192.70
2019-05-18T10:16:49.314Z,99203.77
2019-05-18T10:19:20.135Z,99207.39
2019-05-18T10:21:50.820Z,99187.52
2019-05-18T10:24:21.408Z,99198.72
2019-05-18T10:26:53.687Z,99190.22
2019-05-18T10:29:24.291Z,99186.65
2019-05-18T10:31:54.923Z,99197.80
2019-05-18T10:34:25.753Z,99199.09
2019-05-18T10:36:56.391Z,99194.98
2019-05-18T10:39:27.004Z,99183.37
2019-05-18T10:41:59.342Z,99182.67
2019-05-18T10:44:31.633Z,99184.57
2019-05-18T11:27:38.689Z,99165.74
2019-05-18T11:30:11.157Z,99169.09
2019-05-18T11:32:41.819Z,99157.72
2019-05-18T11:35:13.028Z,99161.07
2019-05-18T11:51:14.795Z,99142.94
2019-05-18T11:53:57.550Z,99129.72
2019-05-18T11:56:18.372Z,99129.77
2019-05-18T11:58:49.077Z,99132.84
2019-05-18T12:01:19.998Z,99124.67
2019-05-18T12:03:53.304Z,99133.08
2019-05-18T12:06:24.943Z,99128.11
2019-05-18T12:08:58.777Z,99120.77
2019-05-18T12:11:29.621Z,99126.92
2019-05-18T12:14:00.300Z,99111.17
2019-05-18T12:16:31.272Z,99106.30
2019-05-18T12:19:02.597Z,99103.75
2019-05-18T12:21:33.313Z,99100.38
2019-05-18T12:24:14.601Z,99101.25
2019-05-18T12:26:36.749Z,99091.12
2019-05-18T12:40:25.397Z,99082.14
2019-05-18T12:42:56.130Z,99088.10
2019-05-18T12:45:26.863Z,99086.83
2019-05-18T12:47:57.704Z,99085.55
2019-05-18T12:50:28.576Z,99083.52
2019-05-18T12:52:59.379Z,99096.30
2019-05-18T12:55:30.522Z,99087.26
2019-05-18T12:58:01.764Z,99081.69
2019-05-18T13:00:32.940Z,99084.27
2019-05-18T13:03:04.157Z,99086.71
2019-05-18T13:05:35.520Z,99086.13
2019-05-18T13:08:06.761Z,99082.73
2019-05-18T13:10:37.653Z,99080.45
2019-05-18T13:20:15.423Z,99072.30
2019-05-18T13:22:46.168Z,99074.38
2019-05-18T13:25:17.692Z,99076.06
2019-05-18T13:27:48.353Z,99070.19
2019-05-18T13:30:21.121Z,99068.23
2019-05-18T13:32:51.948Z,99070.81
2019-05-18T13:35:22.780Z,99069.16
2019-05-18T13:37:54.198Z,99063.98
2019-05-18T13:40:25.263Z,99062.86
2019-05-18T13:42:56.628Z,99060.53
2019-05-18T13:45:27.460Z,99067.81
2019-05-18T13:47:58.257Z,99072.69
2019-05-18T13:50:29.518Z,99059.45
2019-05-18T13:53:00.151Z,99061.39
2019-05-18T13:55:31.061Z,99062.97
2019-05-18T13:58:02.213Z,99064.09
2019-05-18T14:00:33.182Z,99062.27
2019-05-18T14:03:06.239Z,99068.88
2019-05-18T14:05:39.783Z,99063.98
2019-05-18T14:08:15.511Z,99064.39
2019-05-18T14:10:43.088Z,99056.61
2019-05-18T14:13:14.340Z,99065.31
2019-05-18T14:15:45.987Z,99059.39
2019-05-18T14:18:16.698Z,99063.77
2019-05-18T14:20:48.202Z,99058.27
2019-05-18T14:23:19.620Z,99055.84
2019-05-18T14:25:50.661Z,99054.71
2019-05-18T14:28:21.597Z,99046.55
2019-05-18T14:30:52.356Z,99046.25
2019-05-18T14:33:23.201Z,99044.54
2019-05-18T14:35:54.019Z,99044.58
2019-05-18T14:38:24.761Z,99045.12
2019-05-18T16:24:52.223Z,99033.34
2019-05-18T16:27:22.992Z,99034.73
2019-05-18T16:29:53.998Z,99036.12
2019-05-18T16:32:26.295Z,99036.15
2019-05-18T16:34:56.960Z,99038.88
2019-05-18T16:37:28.101Z,99036.47
2019-05-18T16:48:54.831Z,99040.05
2019-05-18T16:51:24.858Z,99040.62
2019-05-18T16:53:55.509Z,99049.05
2019-05-18T16:56:34.827Z,99043.31
2019-05-18T16:58:58.666Z,99035.16
2019-05-18T17:01:30.912Z,99042.50
2019-05-18T17:04:01.549Z,99042.50
2019-05-18T17:06:33.969Z,99035.14
2019-05-18T17:09:08.060Z,99048.23
2019-05-18T17:11:38.827Z,99055.31
2019-05-18T17:14:10.968Z,99049.59
2019-05-18T17:16:41.703Z,99052.03
2019-05-18T17:19:12.647Z,99054.21
2019-05-18T17:21:43.264Z,99049.86
2019-05-18T17:24:13.970Z,99056.59
2019-05-18T17:26:52.974Z,99057.13
2019-05-18T17:29:23.112Z,99052.48
2019-05-18T17:31:54.079Z,99066.62
2019-05-18T17:34:24.863Z,99067.42
2019-05-18T17:36:55.463Z,99071.78
2019-05-18T17:39:26.169Z,99080.75
2019-05-18T17:41:56.906Z,99075.86
2019-05-18T17:44:30.000Z,99080.19
2019-05-18T17:47:00.572Z,99088.59
2019-05-18T17:49:31.294Z,99083.67
2019-05-18T17:52:02.003Z,99088.59
2019-05-18T17:54:32.699Z,99090.74
2019-05-18T17:57:08.527Z,99096.72
2019-05-18T17:59:36.829Z,99097.81
2019-05-18T18:02:07.771Z,99095.88
2019-05-18T18:04:38.433Z,99101.55
2019-05-18T18:07:09.201Z,99096.05
2019-05-18T18:09:41.390Z,99091.94
2019-05-18T18:12:12.277Z,99095.75
2019-05-18T18:14:43.079Z,99098.42
2019-05-18T18:17:17.425Z,99094.05
2019-05-18T18:19:59.198Z,99098.59
2019-05-18T18:22:37.245Z,99094.82
2019-05-18T18:25:08.478Z,99099.39
2019-05-18T18:27:39.019Z,99104.52
2019-05-18T18:30:17.217Z,99109.64
2019-05-18T18:33:06.832Z,99108.01
2019-05-18T18:35:39.605Z,99113.98
2019-05-18T18:39:02.043Z,99115.27
2019-05-18T18:40:57.708Z,99117.92
2019-05-18T18:43:28.538Z,99110.23
2019-05-18T18:45:59.389Z,99121.62
2019-05-18T18:48:30.047Z,99114.42
2019-05-18T18:51:00.665Z,99114.68
2019-05-18T18:53:31.376Z,99116.87
2019-05-18T18:56:02.137Z,99115.75
2019-05-18T18:58:32.775Z,99120.57
2019-05-18T19:01:03.582Z,99122.94
2019-05-18T19:03:34.320Z,99121.77
2019-05-18T19:06:05.054Z,99119.30
2019-05-18T19:08:36.048Z,99121.88
2019-05-18T19:11:06.809Z,99123.24
2019-05-18T19:13:37.760Z,99125.70
2019-05-18T19:16:09.078Z,99121.34
2019-05-18T19:18:42.628Z,99130.25
2019-05-18T19:21:14.007Z,99123.67
2019-05-18T19:23:45.147Z,99123.50
2019-05-18T19:26:18.358Z,99121.19
2019-05-18T19:28:49.181Z,99110.55
2019-05-18T19:31:20.221Z,99122.69
2019-05-18T19:33:51.388Z,99107.16
2019-05-18T19:36:22.502Z,99108.27
2019-05-18T19:38:54.095Z,99106.59
2019-05-18T19:41:25.093Z,99112.84
2019-05-18T19:43:56.342Z,99116.09
2019-05-18T19:46:27.489Z,99113.60
2019-05-18T19:48:58.833Z,99112.23
2019-05-18T19:51:29.910Z,99116.22
2019-05-18T19:54:01.203Z,99115.87
2019-05-18T19:56:38.877Z,99119.86
2019-05-18T19:59:05.384Z,99118.98
2019-05-18T20:01:39.474Z,99120.83
2019-05-18T20:04:10.721Z,99129.41
2019-05-18T20:06:41.962Z,99122.36
2019-05-18T20:09:13.107Z,99125.70
2019-05-18T20:11:44.462Z,99131.09
2019-05-18T20:14:15.489Z,99133.19
2019-05-18T20:16:46.565Z,99128.73
2019-05-18T20:19:17.678Z,99131.20
2019-05-18T20:21:48.829Z,99133.91
2019-05-18T20:24:19.980Z,99135.70
2019-05-18T20:26:52.425Z,99130.83
2019-05-18T20:29:23.641Z,99130.25
2019-05-18T20:31:54.620Z,99137.20
2019-05-18T20:34:25.883Z,99127.97
2019-05-18T20:36:56.603Z,99127.94
2019-05-18T20:39:27.637Z,99120.96
2019-05-18T20:42:09.643Z,99134.19
2019-05-18T20:44:40.576Z,99130.56
2019-05-18T20:47:11.906Z,99133.69
2019-05-18T20:49:43.090Z,99135.11
2019-05-18T20:52:16.685Z,99140.52
2019-05-18T20:54:47.708Z,99146.05
2019-05-18T20:57:18.862Z,99146.02
2019-05-18T20:59:49.689Z,99140.95
2019-05-18T21:02:21.045Z,99143.18
2019-05-18T21:04:52.690Z,99136.94
2019-05-18T21:07:23.534Z,99142.20
2019-05-18T21:09:56.621Z,99137.73
2019-05-18T21:12:27.668Z,99145.92
2019-05-18T21:14:58.620Z,99144.84
2019-05-18T21:17:29.746Z,99150.09
2019-05-18T21:20:01.196Z,99153.95
2019-05-18T21:22:32.745Z,99156.55
2019-05-18T21:25:03.577Z,99150.03
2019-05-18T21:27:34.734Z,99151.58
2019-05-18T21:30:06.917Z,99151.03
2019-05-18T21:32:38.452Z,99149.39
2019-05-18T21:35:09.724Z,99145.30
2019-05-18T21:37:40.423Z,99142.28
2019-05-18T21:40:12.310Z,99141.20
2019-05-18T21:42:43.324Z,99140.37
2019-05-18T21:45:14.986Z,99146.50
2019-05-18T21:47:47.869Z,99142.88
2019-05-18T21:50:18.904Z,99146.88
2019-05-18T21:52:49.750Z,99151.28
2019-05-18T21:55:20.784Z,99153.91
2019-05-18T21:57:51.832Z,99155.73
2019-05-18T22:00:24.153Z,99154.37
2019-05-18T22:02:54.829Z,99156.17
2019-05-18T22:05:25.864Z,99161.48
2019-05-18T22:07:57.004Z,99151.02
2019-05-18T22:10:28.061Z,99148.75
2019-05-18T22:12:59.909Z,99143.86
2019-05-18T22:15:30.850Z,99137.69
2019-05-18T22:18:04.768Z,99144.75
2019-05-18T22:20:43.300Z,99139.64
2019-05-18T22:23:10.220Z,99141.61
2019-05-18T22:25:40.996Z,99142.13
2019-05-18T22:28:12.097Z,99135.51
2019-05-18T22:30:42.965Z,99137.33
2019-05-18T22:33:14.506Z,99133.92
2019-05-18T22:35:45.650Z,99132.70
2019-05-18T22:38:16.894Z,99134.47
2019-05-18T22:40:48.150Z,99144.36
2019-05-18T22:43:19.286Z,99146.16
2019-05-18T22:45:51.854Z,99146.39
2019-05-18T22:48:22.907Z,99146.31
2019-05-18T22:50:54.467Z,99145.48
2019-05-18T22:53:25.543Z,99143.01
2019-05-18T22:55:56.852Z,99143.19
2019-05-18T22:58:28.137Z,99144.41
2019-05-18T23:01:00.353Z,99140.22
2019-05-18T23:03:31.442Z,99140.91
2019-05-18T23:06:02.734Z,99141.46
2019-05-18T23:08:33.897Z,99143.92
2019-05-18T23:11:05.558Z,99137.88
2019-05-18T23:13:39.154Z,99134.34
2019-05-18T23:16:10.080Z,99139.60
2019-05-18T23:18:54.465Z,99141.50
2019-05-18T23:21:13.887Z,99142.28
2019-05-18T23:23:44.928Z,99154.90
2019-05-18T23:26:16.192Z,99151.42
2019-05-18T23:28:47.314Z,99162.00
2019-05-18T23:31:18.356Z,99158.52
2019-05-18T23:33:49.498Z,99155.20
2019-05-18T23:36:20.752Z,99154.55
2019-05-18T23:38:52.589Z,99153.16
2019-05-18T23:41:23.748Z,99153.61
2019-05-18T23:43:55.099Z,99152.23
2019-05-18T23:46:25.727Z,99148.65
2019-05-18T23:49:09.979Z,99150.00
2019-05-18T23:51:29.760Z,99156.00
2019-05-18T23:54:01.511Z,99162.23
2019-05-18T23:56:33.275Z,99159.38
2019-05-18T23:59:05.254Z,99158.98
